sensor_id;sensor_type;location;lat;lon;timestamp;pressure;altitude;pressure_sealevel;temperature;humidity
23677;BME280;31493;49.058;12.190;2022-07-12T00:02:15;96628.22;;;15.78;88.33
23677;BME280;31493;49.058;12.190;2022-07-12T00:04:42;96639.47;;;15.90;87.59
23677;BME280;31493;49.058;12.190;2022-07-12T00:07:11;96634.59;;;15.85;87.70
23677;BME280;31493;49.058;12.190;2022-07-12T00:09:38;96634.44;;;15.98;86.91
23677;BME280;31493;49.058;12.190;2022-07-12T00:12:05;96644.44;;;15.93;87.49
23677;BME280;31493;49.058;12.190;2022-07-12T00:14:32;96637.06;;;15.98;87.17
23677;BME280;31493;49.058;12.190;2022-07-12T00:16:59;96647.88;;;15.94;87.60
23677;BME280;31493;49.058;12.190;2022-07-12T00:19:28;96634.34;;;15.89;88.03
23677;BME280;31493;49.058;12.190;2022-07-12T00:21:55;96634.28;;;15.79;88.64
23677;BME280;31493;49.058;12.190;2022-07-12T00:24:23;96630.22;;;15.75;89.42
23677;BME280;31493;49.058;12.190;2022-07-12T00:26:50;96625.59;;;15.78;88.70
23677;BME280;31493;49.058;12.190;2022-07-12T00:29:18;96639.59;;;15.77;88.82
23677;BME280;31493;49.058;12.190;2022-07-12T00:31:45;96631.53;;;15.80;88.25
23677;BME280;31493;49.058;12.190;2022-07-12T00:34:12;96643.16;;;15.76;88.96
23677;BME280;31493;49.058;12.190;2022-07-12T00:36:39;96638.88;;;15.75;88.68
23677;BME280;31493;49.058;12.190;2022-07-12T00:39:06;96649.59;;;15.72;89.43
23677;BME280;31493;49.058;12.190;2022-07-12T00:41:34;96641.50;;;15.75;89.41
23677;BME280;31493;49.058;12.190;2022-07-12T00:44:01;96648.03;;;15.70;89.70
23677;BME280;31493;49.058;12.190;2022-07-12T00:46:29;96646.03;;;15.62;90.41
23677;BME280;31493;49.058;12.190;2022-07-12T00:48:57;96639.97;;;15.62;90.57
23677;BME280;31493;49.058;12.190;2022-07-12T00:51:25;96642.13;;;15.68;89.07
23677;BME280;31493;49.058;12.190;2022-07-12T00:53:53;96631.69;;;15.68;89.71
23677;BME280;31493;49.058;12.190;2022-07-12T00:56:23;96636.28;;;15.64;89.94
23677;BME280;31493;49.058;12.190;2022-07-12T00:58:51;96633.22;;;15.59;89.91
23677;BME280;31493;49.058;12.190;2022-07-12T01:01:18;96644.84;;;15.55;90.38
23677;BME280;31493;49.058;12.190;2022-07-12T01:03:46;96643.75;;;15.57;90.72
23677;BME280;31493;49.058;12.190;2022-07-12T01:06:13;96641.28;;;15.45;90.95
23677;BME280;31493;49.058;12.190;2022-07-12T01:08:40;96642.94;;;15.46;90.91
23677;BME280;31493;49.058;12.190;2022-07-12T01:11:07;96636.31;;;15.42;90.79
23677;BME280;31493;49.058;12.190;2022-07-12T01:13:35;96643.19;;;15.43;91.52
23677;BME280;31493;49.058;12.190;2022-07-12T01:16:05;96645.94;;;15.41;91.69
23677;BME280;31493;49.058;12.190;2022-07-12T01:18:34;96640.84;;;15.28;92.47
23677;BME280;31493;49.058;12.190;2022-07-12T01:21:03;96640.56;;;15.20;92.01
23677;BME280;31493;49.058;12.190;2022-07-12T01:23:33;96655.88;;;15.25;92.36
23677;BME280;31493;49.058;12.190;2022-07-12T01:26:00;96655.03;;;15.13;92.60
23677;BME280;31493;49.058;12.190;2022-07-12T01:28:28;96646.47;;;14.89;92.77
23677;BME280;31493;49.058;12.190;2022-07-12T01:30:55;96643.66;;;14.92;93.18
23677;BME280;31493;49.058;12.190;2022-07-12T01:33:22;96643.28;;;14.96;93.53
23677;BME280;31493;49.058;12.190;2022-07-12T01:35:49;96646.84;;;14.95;94.04
23677;BME280;31493;49.058;12.190;2022-07-12T01:38:16;96644.47;;;15.03;93.63
23677;BME280;31493;49.058;12.190;2022-07-12T01:40:45;96634.16;;;14.91;94.73
23677;BME280;31493;49.058;12.190;2022-07-12T01:43:13;96639.38;;;14.91;94.82
23677;BME280;31493;49.058;12.190;2022-07-12T01:45:40;96635.44;;;14.85;95.45
23677;BME280;31493;49.058;12.190;2022-07-12T01:48:07;96643.50;;;14.82;96.14
23677;BME280;31493;49.058;12.190;2022-07-12T01:50:34;96640.78;;;14.84;96.16
23677;BME280;31493;49.058;12.190;2022-07-12T01:53:05;96632.63;;;14.88;96.40
23677;BME280;31493;49.058;12.190;2022-07-12T01:55:32;96631.44;;;14.81;96.74
23677;BME280;31493;49.058;12.190;2022-07-12T01:58:00;96628.25;;;14.89;96.50
23677;BME280;31493;49.058;12.190;2022-07-12T02:00:28;96632.50;;;15.01;95.69
23677;BME280;31493;49.058;12.190;2022-07-12T02:02:56;96630.25;;;14.96;96.44
23677;BME280;31493;49.058;12.190;2022-07-12T02:05:23;96636.06;;;15.00;96.16
23677;BME280;31493;49.058;12.190;2022-07-12T02:07:50;96635.94;;;15.01;95.80
23677;BME280;31493;49.058;12.190;2022-07-12T02:10:18;96639.50;;;14.89;96.98
23677;BME280;31493;49.058;12.190;2022-07-12T02:12:45;96625.16;;;14.95;96.78
23677;BME280;31493;49.058;12.190;2022-07-12T02:15:13;96631.56;;;15.02;96.13
23677;BME280;31493;49.058;12.190;2022-07-12T02:17:40;96633.94;;;14.94;96.71
23677;BME280;31493;49.058;12.190;2022-07-12T02:20:09;96645.19;;;14.94;96.62
23677;BME280;31493;49.058;12.190;2022-07-12T02:22:38;96630.63;;;14.92;96.58
23677;BME280;31493;49.058;12.190;2022-07-12T02:25:05;96632.28;;;14.93;96.73
23677;BME280;31493;49.058;12.190;2022-07-12T02:27:32;96629.69;;;15.04;95.87
23677;BME280;31493;49.058;12.190;2022-07-12T02:29:59;96628.84;;;15.03;96.35
23677;BME280;31493;49.058;12.190;2022-07-12T02:32:28;96637.41;;;15.17;95.35
23677;BME280;31493;49.058;12.190;2022-07-12T02:34:55;96633.00;;;15.17;95.23
23677;BME280;31493;49.058;12.190;2022-07-12T02:37:22;96634.88;;;15.15;96.17
23677;BME280;31493;49.058;12.190;2022-07-12T02:39:49;96637.75;;;15.12;96.06
23677;BME280;31493;49.058;12.190;2022-07-12T02:42:16;96644.47;;;15.15;95.15
23677;BME280;31493;49.058;12.190;2022-07-12T02:44:43;96637.88;;;15.11;95.77
23677;BME280;31493;49.058;12.190;2022-07-12T02:47:10;96642.59;;;15.05;96.06
23677;BME280;31493;49.058;12.190;2022-07-12T02:49:38;96638.44;;;14.92;97.18
23677;BME280;31493;49.058;12.190;2022-07-12T02:52:06;96647.56;;;14.97;96.66
23677;BME280;31493;49.058;12.190;2022-07-12T02:54:33;96633.81;;;14.95;96.93
23677;BME280;31493;49.058;12.190;2022-07-12T02:57:00;96642.59;;;14.94;96.86
23677;BME280;31493;49.058;12.190;2022-07-12T02:59:27;96643.66;;;14.92;97.03
23677;BME280;31493;49.058;12.190;2022-07-12T03:01:54;96650.75;;;14.90;97.25
23677;BME280;31493;49.058;12.190;2022-07-12T03:04:21;96648.50;;;14.96;96.87
23677;BME280;31493;49.058;12.190;2022-07-12T03:06:49;96651.94;;;14.86;97.58
23677;BME280;31493;49.058;12.190;2022-07-12T03:09:16;96647.91;;;14.82;97.78
23677;BME280;31493;49.058;12.190;2022-07-12T03:11:44;96654.06;;;14.81;98.00
23677;BME280;31493;49.058;12.190;2022-07-12T03:14:11;96648.13;;;14.78;98.23
23677;BME280;31493;49.058;12.190;2022-07-12T03:16:38;96646.34;;;14.90;97.22
23677;BME280;31493;49.058;12.190;2022-07-12T03:19:05;96633.31;;;14.90;97.22
23677;BME280;31493;49.058;12.190;2022-07-12T03:21:32;96651.09;;;14.85;97.86
23677;BME280;31493;49.058;12.190;2022-07-12T03:24:00;96649.41;;;14.73;98.91
23677;BME280;31493;49.058;12.190;2022-07-12T03:26:27;96658.75;;;14.64;99.59
23677;BME280;31493;49.058;12.190;2022-07-12T03:28:54;96651.88;;;14.63;99.27
23677;BME280;31493;49.058;12.190;2022-07-12T03:31:21;96646.44;;;14.66;98.63
23677;BME280;31493;49.058;12.190;2022-07-12T03:33:49;96658.53;;;14.67;98.56
23677;BME280;31493;49.058;12.190;2022-07-12T03:36:16;96658.50;;;14.56;99.49
23677;BME280;31493;49.058;12.190;2022-07-12T03:38:43;96670.09;;;14.52;99.34
23677;BME280;31493;49.058;12.190;2022-07-12T03:41:11;96673.03;;;14.47;99.97
23677;BME280;31493;49.058;12.190;2022-07-12T03:43:39;96667.06;;;14.45;99.79
23677;BME280;31493;49.058;12.190;2022-07-12T03:46:06;96667.19;;;14.44;100.00
23677;BME280;31493;49.058;12.190;2022-07-12T03:48:33;96671.91;;;14.39;100.00
23677;BME280;31493;49.058;12.190;2022-07-12T03:51:00;96675.22;;;14.41;100.00
23677;BME280;31493;49.058;12.190;2022-07-12T03:53:27;96682.66;;;14.34;100.00
23677;BME280;31493;49.058;12.190;2022-07-12T03:55:54;96679.69;;;14.28;100.00
23677;BME280;31493;49.058;12.190;2022-07-12T03:58:22;96666.66;;;14.28;100.00
23677;BME280;31493;49.058;12.190;2022-07-12T04:00:49;96680.44;;;14.17;100.00
23677;BME280;31493;49.058;12.190;2022-07-12T04:03:16;96685.66;;;14.17;100.00
23677;BME280;31493;49.058;12.190;2022-07-12T04:05:43;96672.47;;;14.31;100.00
23677;BME280;31493;49.058;12.190;2022-07-12T04:08:10;96673.06;;;14.35;100.00
23677;BME280;31493;49.058;12.190;2022-07-12T04:10:38;96671.28;;;14.35;100.00
23677;BME280;31493;49.058;12.190;2022-07-12T04:13:05;96665.50;;;14.32;100.00
23677;BME280;31493;49.058;12.190;2022-07-12T04:15:33;96667.38;;;14.30;100.00
23677;BME280;31493;49.058;12.190;2022-07-12T04:18:00;96664.38;;;14.23;100.00
23677;BME280;31493;49.058;12.190;2022-07-12T04:20:28;96672.47;;;14.31;100.00
23677;BME280;31493;49.058;12.190;2022-07-12T04:22:55;96670.22;;;14.27;100.00
23677;BME280;31493;49.058;12.190;2022-07-12T04:25:22;96670.66;;;14.20;100.00
23677;BME280;31493;49.058;12.190;2022-07-12T04:27:50;96686.59;;;14.16;100.00
23677;BME280;31493;49.058;12.190;2022-07-12T04:30:19;96673.53;;;14.05;100.00
23677;BME280;31493;49.058;12.190;2022-07-12T04:32:47;96682.06;;;14.07;100.00
23677;BME280;31493;49.058;12.190;2022-07-12T04:35:14;96677.06;;;14.04;100.00
23677;BME280;31493;49.058;12.190;2022-07-12T04:37:41;96682.59;;;13.99;100.00
23677;BME280;31493;49.058;12.190;2022-07-12T04:40:10;96678.66;;;14.06;100.00
23677;BME280;31493;49.058;12.190;2022-07-12T04:42:37;96676.03;;;14.06;100.00
23677;BME280;31493;49.058;12.190;2022-07-12T04:45:05;96687.66;;;13.89;100.00
23677;BME280;31493;49.058;12.190;2022-07-12T04:47:35;96692.16;;;13.87;100.00
23677;BME280;31493;49.058;12.190;2022-07-12T04:50:05;96686.81;;;13.89;100.00
23677;BME280;31493;49.058;12.190;2022-07-12T04:52:32;96677.81;;;14.06;100.00
23677;BME280;31493;49.058;12.190;2022-07-12T04:54:59;96682.47;;;14.13;100.00
23677;BME280;31493;49.058;12.190;2022-07-12T04:57:26;96679.19;;;14.22;100.00
23677;BME280;31493;49.058;12.190;2022-07-12T04:59:53;96689.16;;;14.88;95.95
23677;BME280;31493;49.058;12.190;2022-07-12T05:02:20;96685.75;;;14.39;100.00
23677;BME280;31493;49.058;12.190;2022-07-12T05:04:47;96702.94;;;14.42;100.00
23677;BME280;31493;49.058;12.190;2022-07-12T05:07:15;96687.41;;;14.40;100.00
23677;BME280;31493;49.058;12.190;2022-07-12T05:09:42;96687.25;;;14.55;100.00
23677;BME280;31493;49.058;12.190;2022-07-12T05:12:09;96698.28;;;14.58;100.00
23677;BME280;31493;49.058;12.190;2022-07-12T05:14:36;96699.84;;;14.61;100.00
23677;BME280;31493;49.058;12.190;2022-07-12T05:17:03;96701.91;;;14.68;100.00
23677;BME280;31493;49.058;12.190;2022-07-12T05:19:30;96708.06;;;14.78;100.00
23677;BME280;31493;49.058;12.190;2022-07-12T05:21:58;96711.25;;;14.71;99.29
23677;BME280;31493;49.058;12.190;2022-07-12T05:24:26;96716.78;;;14.55;100.00
23677;BME280;31493;49.058;12.190;2022-07-12T05:26:53;96710.38;;;14.59;100.00
23677;BME280;31493;49.058;12.190;2022-07-12T05:29:20;96716.47;;;14.71;100.00
23677;BME280;31493;49.058;12.190;2022-07-12T05:31:48;96710.38;;;14.94;98.93
23677;BME280;31493;49.058;12.190;2022-07-12T05:34:15;96710.94;;;14.87;98.93
23677;BME280;31493;49.058;12.190;2022-07-12T05:36:42;96716.75;;;14.90;98.27
23677;BME280;31493;49.058;12.190;2022-07-12T05:39:09;96704.78;;;14.88;97.86
23677;BME280;31493;49.058;12.190;2022-07-12T05:41:37;96719.25;;;15.03;98.27
23677;BME280;31493;49.058;12.190;2022-07-12T05:44:04;96724.47;;;14.92;97.68
23677;BME280;31493;49.058;12.190;2022-07-12T05:46:31;96719.63;;;15.10;97.70
23677;BME280;31493;49.058;12.190;2022-07-12T05:48:58;96710.88;;;15.22;96.99
23677;BME280;31493;49.058;12.190;2022-07-12T05:51:25;96718.00;;;15.20;97.02
23677;BME280;31493;49.058;12.190;2022-07-12T05:54:10;96722.50;;;15.18;96.16
23677;BME280;31493;49.058;12.190;2022-07-12T05:56:39;96720.03;;;15.39;96.40
23677;BME280;31493;49.058;12.190;2022-07-12T05:59:06;96731.75;;;15.33;95.40
23677;BME280;31493;49.058;12.190;2022-07-12T06:01:33;96721.56;;;15.52;93.94
23677;BME280;31493;49.058;12.190;2022-07-12T06:04:01;96737.38;;;15.73;93.87
23677;BME280;31493;49.058;12.190;2022-07-12T06:06:28;96738.56;;;15.80;92.90
23677;BME280;31493;49.058;12.190;2022-07-12T06:08:55;96737.84;;;15.78;91.76
23677;BME280;31493;49.058;12.190;2022-07-12T06:11:22;96732.59;;;15.90;91.48
23677;BME280;31493;49.058;12.190;2022-07-12T06:13:50;96741.03;;;15.93;92.27
23677;BME280;31493;49.058;12.190;2022-07-12T06:16:17;96729.84;;;16.13;89.26
23677;BME280;31493;49.058;12.190;2022-07-12T06:18:44;96748.03;;;16.04;89.32
23677;BME280;31493;49.058;12.190;2022-07-12T06:21:11;96741.28;;;15.90;88.32
23677;BME280;31493;49.058;12.190;2022-07-12T06:23:38;96731.47;;;16.26;88.09
23677;BME280;31493;49.058;12.190;2022-07-12T06:26:06;96737.25;;;16.41;88.63
23677;BME280;31493;49.058;12.190;2022-07-12T06:28:33;96733.03;;;16.60;87.73
23677;BME280;31493;49.058;12.190;2022-07-12T06:31:02;96741.41;;;16.43;86.91
23677;BME280;31493;49.058;12.190;2022-07-12T06:33:29;96735.81;;;16.69;85.94
23677;BME280;31493;49.058;12.190;2022-07-12T06:35:56;96742.63;;;16.71;85.56
23677;BME280;31493;49.058;12.190;2022-07-12T06:38:23;96746.91;;;16.72;84.92
23677;BME280;31493;49.058;12.190;2022-07-12T06:40:51;96745.00;;;16.74;83.45
23677;BME280;31493;49.058;12.190;2022-07-12T06:43:18;96747.38;;;16.77;82.67
23677;BME280;31493;49.058;12.190;2022-07-12T06:45:45;96750.22;;;16.74;83.22
23677;BME280;31493;49.058;12.190;2022-07-12T06:48:13;96737.38;;;17.03;81.79
23677;BME280;31493;49.058;12.190;2022-07-12T06:50:40;96744.56;;;17.11;82.36
23677;BME280;31493;49.058;12.190;2022-07-12T06:53:07;96742.19;;;17.29;81.75
23677;BME280;31493;49.058;12.190;2022-07-12T06:55:34;96737.13;;;17.37;80.07
23677;BME280;31493;49.058;12.190;2022-07-12T06:58:01;96736.69;;;17.53;80.08
23677;BME280;31493;49.058;12.190;2022-07-12T07:00:28;96731.19;;;17.56;78.20
23677;BME280;31493;49.058;12.190;2022-07-12T07:02:55;96746.88;;;17.77;78.44
23677;BME280;31493;49.058;12.190;2022-07-12T07:05:24;96729.97;;;17.90;77.30
23677;BME280;31493;49.058;12.190;2022-07-12T07:07:51;96739.00;;;18.17;73.25
23677;BME280;31493;49.058;12.190;2022-07-12T07:10:18;96749.84;;;18.03;71.48
23677;BME280;31493;49.058;12.190;2022-07-12T07:12:45;96736.50;;;18.15;71.49
23677;BME280;31493;49.058;12.190;2022-07-12T07:15:13;96736.13;;;18.39;66.97
23677;BME280;31493;49.058;12.190;2022-07-12T07:17:41;96746.44;;;18.12;64.55
23677;BME280;31493;49.058;12.190;2022-07-12T07:20:09;96738.00;;;18.68;65.33
23677;BME280;31493;49.058;12.190;2022-07-12T07:22:38;96747.19;;;18.52;64.69
23677;BME280;31493;49.058;12.190;2022-07-12T07:25:06;96750.88;;;18.40;64.01
23677;BME280;31493;49.058;12.190;2022-07-12T07:27:33;96744.28;;;18.46;60.49
23677;BME280;31493;49.058;12.190;2022-07-12T07:30:00;96751.63;;;18.71;60.30
23677;BME280;31493;49.058;12.190;2022-07-12T07:32:45;96743.63;;;18.92;60.48
23677;BME280;31493;49.058;12.190;2022-07-12T07:35:12;96757.88;;;18.80;58.28
23677;BME280;31493;49.058;12.190;2022-07-12T07:37:40;96765.88;;;18.69;58.44
23677;BME280;31493;49.058;12.190;2022-07-12T07:40:09;96761.31;;;19.00;57.81
23677;BME280;31493;49.058;12.190;2022-07-12T07:42:36;96773.31;;;18.83;56.70
23677;BME280;31493;49.058;12.190;2022-07-12T07:45:03;96758.94;;;19.16;55.47
23677;BME280;31493;49.058;12.190;2022-07-12T07:47:42;96761.94;;;19.31;54.95
23677;BME280;31493;49.058;12.190;2022-07-12T07:50:09;96776.09;;;18.82;57.66
23677;BME280;31493;49.058;12.190;2022-07-12T07:52:36;96753.25;;;19.21;56.80
23677;BME280;31493;49.058;12.190;2022-07-12T07:55:05;96760.13;;;19.41;54.96
23677;BME280;31493;49.058;12.190;2022-07-12T07:57:32;96759.31;;;19.31;53.73
23677;BME280;31493;49.058;12.190;2022-07-12T07:59:59;96762.34;;;19.46;53.60
23677;BME280;31493;49.058;12.190;2022-07-12T08:02:26;96751.50;;;19.68;54.07
23677;BME280;31493;49.058;12.190;2022-07-12T08:04:53;96763.13;;;19.56;52.24
23677;BME280;31493;49.058;12.190;2022-07-12T08:07:20;96747.06;;;19.78;51.53
23677;BME280;31493;49.058;12.190;2022-07-12T08:09:47;96757.19;;;19.64;51.97
23677;BME280;31493;49.058;12.190;2022-07-12T08:12:16;96749.88;;;19.95;51.01
23677;BME280;31493;49.058;12.190;2022-07-12T08:14:43;96742.78;;;20.05;52.21
23677;BME280;31493;49.058;12.190;2022-07-12T08:17:10;96743.09;;;20.02;52.26
23677;BME280;31493;49.058;12.190;2022-07-12T08:19:37;96741.31;;;20.20;51.77
23677;BME280;31493;49.058;12.190;2022-07-12T08:22:04;96743.78;;;20.22;51.36
23677;BME280;31493;49.058;12.190;2022-07-12T08:24:31;96749.97;;;20.03;49.74
23677;BME280;31493;49.058;12.190;2022-07-12T08:26:58;96759.53;;;20.04;49.77
23677;BME280;31493;49.058;12.190;2022-07-12T08:29:26;96750.09;;;20.29;51.21
23677;BME280;31493;49.058;12.190;2022-07-12T08:31:53;96731.78;;;20.64;51.89
23677;BME280;31493;49.058;12.190;2022-07-12T08:34:20;96746.34;;;20.77;47.30
23677;BME280;31493;49.058;12.190;2022-07-12T08:36:47;96751.06;;;20.91;47.49
23677;BME280;31493;49.058;12.190;2022-07-12T08:39:14;96765.81;;;20.21;47.45
23677;BME280;31493;49.058;12.190;2022-07-12T08:41:41;96746.84;;;20.80;47.96
23677;BME280;31493;49.058;12.190;2022-07-12T08:44:08;96754.97;;;21.05;46.07
23677;BME280;31493;49.058;12.190;2022-07-12T08:46:37;96758.25;;;20.81;49.35
23677;BME280;31493;49.058;12.190;2022-07-12T08:49:05;96750.56;;;20.70;50.18
23677;BME280;31493;49.058;12.190;2022-07-12T08:51:33;96765.28;;;20.35;50.90
23677;BME280;31493;49.058;12.190;2022-07-12T08:54:07;96773.56;;;20.12;53.84
23677;BME280;31493;49.058;12.190;2022-07-12T08:56:36;96778.25;;;19.91;54.86
23677;BME280;31493;49.058;12.190;2022-07-12T08:59:12;96775.06;;;19.88;54.96
23677;BME280;31493;49.058;12.190;2022-07-12T09:01:42;96781.34;;;19.77;55.91
23677;BME280;31493;49.058;12.190;2022-07-12T09:04:10;96776.41;;;20.01;54.71
23677;BME280;31493;49.058;12.190;2022-07-12T09:06:37;96781.22;;;19.78;53.43
23677;BME280;31493;49.058;12.190;2022-07-12T09:09:05;96795.06;;;19.61;52.33
23677;BME280;31493;49.058;12.190;2022-07-12T09:11:36;96798.81;;;19.39;52.47
23677;BME280;31493;49.058;12.190;2022-07-12T09:14:03;96795.47;;;19.56;51.47
23677;BME280;31493;49.058;12.190;2022-07-12T09:16:31;96783.19;;;19.94;50.87
23677;BME280;31493;49.058;12.190;2022-07-12T09:19:17;96768.56;;;20.19;49.67
23677;BME280;31493;49.058;12.190;2022-07-12T09:21:47;96757.75;;;20.85;48.34
23677;BME280;31493;49.058;12.190;2022-07-12T09:24:16;96768.81;;;20.44;47.60
23677;BME280;31493;49.058;12.190;2022-07-12T09:26:43;96759.88;;;20.82;47.27
23677;BME280;31493;49.058;12.190;2022-07-12T09:29:11;96762.19;;;21.03;46.74
23677;BME280;31493;49.058;12.190;2022-07-12T09:31:40;96760.94;;;20.89;44.80
23677;BME280;31493;49.058;12.190;2022-07-12T09:34:29;96759.50;;;20.95;46.79
23677;BME280;31493;49.058;12.190;2022-07-12T09:37:14;96767.09;;;20.80;45.86
23677;BME280;31493;49.058;12.190;2022-07-12T09:39:41;96754.88;;;21.14;47.75
23677;BME280;31493;49.058;12.190;2022-07-12T09:42:09;96747.38;;;21.71;44.94
23677;BME280;31493;49.058;12.190;2022-07-12T09:44:37;96774.53;;;20.84;45.39
23677;BME280;31493;49.058;12.190;2022-07-12T09:47:07;96764.53;;;21.06;43.65
23677;BME280;31493;49.058;12.190;2022-07-12T09:49:37;96739.44;;;21.63;42.86
23677;BME280;31493;49.058;12.190;2022-07-12T09:52:06;96752.41;;;21.57;41.25
23677;BME280;31493;49.058;12.190;2022-07-12T09:54:40;96727.69;;;22.34;40.92
23677;BME280;31493;49.058;12.190;2022-07-12T09:57:13;96761.38;;;21.72;39.87
23677;BME280;31493;49.058;12.190;2022-07-12T09:59:44;96755.59;;;21.68;39.58
23677;BME280;31493;49.058;12.190;2022-07-12T10:02:12;96764.63;;;21.66;40.26
23677;BME280;31493;49.058;12.190;2022-07-12T10:04:43;96763.94;;;21.56;41.36
23677;BME280;31493;49.058;12.190;2022-07-12T10:07:10;96755.63;;;21.77;41.53
23677;BME280;31493;49.058;12.190;2022-07-12T10:09:40;96775.88;;;21.24;42.05
23677;BME280;31493;49.058;12.190;2022-07-12T10:12:08;96770.13;;;21.46;42.36
23677;BME280;31493;49.058;12.190;2022-07-12T10:14:37;96769.03;;;21.13;44.11
23677;BME280;31493;49.058;12.190;2022-07-12T10:17:06;96750.56;;;21.83;44.12
23677;BME280;31493;49.058;12.190;2022-07-12T10:19:36;96771.72;;;21.39;43.83
23677;BME280;31493;49.058;12.190;2022-07-12T10:22:07;96771.50;;;21.33;44.26
23677;BME280;31493;49.058;12.190;2022-07-12T10:24:46;96748.06;;;21.73;43.22
23677;BME280;31493;49.058;12.190;2022-07-12T10:27:37;96740.28;;;22.06;44.45
23677;BME280;31493;49.058;12.190;2022-07-12T10:30:18;96726.94;;;22.74;42.56
23677;BME280;31493;49.058;12.190;2022-07-12T10:32:47;96729.91;;;22.63;42.05
23677;BME280;31493;49.058;12.190;2022-07-12T10:35:19;96724.47;;;22.81;41.14
23677;BME280;31493;49.058;12.190;2022-07-12T10:38:22;96741.06;;;22.33;40.65
23677;BME280;31493;49.058;12.190;2022-07-12T10:40:50;96719.66;;;22.36;41.16
23677;BME280;31493;49.058;12.190;2022-07-12T10:43:22;96749.34;;;22.04;41.27
23677;BME280;31493;49.058;12.190;2022-07-12T10:46:18;96751.25;;;21.85;42.12
23677;BME280;31493;49.058;12.190;2022-07-12T10:48:48;96739.22;;;21.91;42.63
23677;BME280;31493;49.058;12.190;2022-07-12T10:51:17;96753.47;;;21.72;42.98
23677;BME280;31493;49.058;12.190;2022-07-12T10:53:47;96745.38;;;21.99;41.06
23677;BME280;31493;49.058;12.190;2022-07-12T10:56:18;96726.44;;;22.63;39.65
23677;BME280;31493;49.058;12.190;2022-07-12T10:58:47;96755.91;;;21.99;42.21
23677;BME280;31493;49.058;12.190;2022-07-12T11:01:16;96762.13;;;21.90;42.92
23677;BME280;31493;49.058;12.190;2022-07-12T11:03:45;96765.63;;;21.65;43.34
23677;BME280;31493;49.058;12.190;2022-07-12T11:06:14;96763.25;;;21.54;43.36
23677;BME280;31493;49.058;12.190;2022-07-12T11:08:52;96738.94;;;22.52;42.42
23677;BME280;31493;49.058;12.190;2022-07-12T11:11:20;96706.66;;;23.24;42.03
23677;BME280;31493;49.058;12.190;2022-07-12T11:13:48;96708.59;;;23.63;38.33
23677;BME280;31493;49.058;12.190;2022-07-12T11:16:15;96717.00;;;23.50;39.78
23677;BME280;31493;49.058;12.190;2022-07-12T11:18:43;96705.94;;;23.63;40.17
23677;BME280;31493;49.058;12.190;2022-07-12T11:21:11;96734.69;;;22.68;39.77
23677;BME280;31493;49.058;12.190;2022-07-12T11:23:38;96717.25;;;22.91;40.64
23677;BME280;31493;49.058;12.190;2022-07-12T11:26:08;96734.81;;;22.42;40.47
23677;BME280;31493;49.058;12.190;2022-07-12T11:28:37;96720.56;;;23.10;40.74
23677;BME280;31493;49.058;12.190;2022-07-12T11:31:06;96717.88;;;22.85;40.85
23677;BME280;31493;49.058;12.190;2022-07-12T11:33:35;96745.78;;;22.21;40.36
23677;BME280;31493;49.058;12.190;2022-07-12T11:36:04;96756.81;;;21.82;38.73
23677;BME280;31493;49.058;12.190;2022-07-12T11:38:32;96727.09;;;22.57;38.71
23677;BME280;31493;49.058;12.190;2022-07-12T11:41:00;96691.56;;;23.57;38.85
23677;BME280;31493;49.058;12.190;2022-07-12T11:43:30;96701.69;;;23.45;37.70
23677;BME280;31493;49.058;12.190;2022-07-12T11:45:58;96713.97;;;22.97;38.58
23677;BME280;31493;49.058;12.190;2022-07-12T11:48:26;96691.41;;;23.58;37.67
23677;BME280;31493;49.058;12.190;2022-07-12T11:50:55;96683.38;;;24.53;36.83
23677;BME280;31493;49.058;12.190;2022-07-12T11:53:23;96675.88;;;24.80;34.43
23677;BME280;31493;49.058;12.190;2022-07-12T11:55:52;96662.78;;;25.39;34.96
23677;BME280;31493;49.058;12.190;2022-07-12T11:58:21;96662.69;;;25.62;35.28
23677;BME280;31493;49.058;12.190;2022-07-12T12:00:51;96703.28;;;24.49;35.18
23677;BME280;31493;49.058;12.190;2022-07-12T12:03:20;96712.53;;;24.06;35.14
23677;BME280;31493;49.058;12.190;2022-07-12T12:05:48;96714.19;;;23.68;35.41
23677;BME280;31493;49.058;12.190;2022-07-12T12:08:15;96724.84;;;23.27;35.75
23677;BME280;31493;49.058;12.190;2022-07-12T12:10:51;96726.59;;;23.51;35.91
23677;BME280;31493;49.058;12.190;2022-07-12T12:13:18;96719.69;;;23.42;36.86
23677;BME280;31493;49.058;12.190;2022-07-12T12:15:51;96727.72;;;23.56;36.23
23677;BME280;31493;49.058;12.190;2022-07-12T12:18:28;96705.72;;;23.80;35.23
23677;BME280;31493;49.058;12.190;2022-07-12T12:21:00;96689.13;;;24.34;34.38
23677;BME280;31493;49.058;12.190;2022-07-12T12:23:28;96703.06;;;24.20;34.68
23677;BME280;31493;49.058;12.190;2022-07-12T12:26:15;96700.25;;;23.90;33.93
23677;BME280;31493;49.058;12.190;2022-07-12T12:28:46;96675.78;;;24.73;33.86
23677;BME280;31493;49.058;12.190;2022-07-12T12:31:16;96664.72;;;25.30;33.77
23677;BME280;31493;49.058;12.190;2022-07-12T12:33:45;96674.38;;;25.23;32.55
23677;BME280;31493;49.058;12.190;2022-07-12T12:36:15;96667.16;;;25.46;34.01
23677;BME280;31493;49.058;12.190;2022-07-12T12:38:43;96690.09;;;24.64;34.25
23677;BME280;31493;49.058;12.190;2022-07-12T12:41:10;96674.31;;;24.93;33.22
23677;BME280;31493;49.058;12.190;2022-07-12T12:43:37;96704.09;;;24.10;32.87
23677;BME280;31493;49.058;12.190;2022-07-12T12:46:04;96703.34;;;23.94;34.40
23677;BME280;31493;49.058;12.190;2022-07-12T12:48:34;96691.69;;;24.11;34.24
23677;BME280;31493;49.058;12.190;2022-07-12T12:51:06;96698.50;;;24.05;33.31
23677;BME280;31493;49.058;12.190;2022-07-12T12:53:34;96706.38;;;23.82;34.97
23677;BME280;31493;49.058;12.190;2022-07-12T12:56:05;96678.41;;;24.73;34.17